^^
Saratoga-Weather Station Historical Data
Daily Summary for June 18, 2020 Units:  English    Metric   Both
Daily Weekly Monthly Yearly Custom
  High: Low: Average:
Temperature: 73.2 °F 52.3 °F 62.1 °F
Dew Point: 59.2 °F 51.3 °F 55 °F
Humidity: 98% 51% 80%
Wind Speed: 8.1mph 0mph 1.4mph
Wind Gust: 14mph - -
Wind- - WSW
Pressure: 29.9 in 29.9 in -
Precipitation: 0 in    
Historical Graphs
 
 
Tabular Data for June 18, 2020
Time Temperature Dew Point Pressure Wind Wind Speed Wind Gust Humidity Rainfall Rate (Hourly) solar
00:02 55.9 °F 54.9 °F 29.9 in Calm     96% 0 in 0 W/m2
00:07 55.9 °F 54.9 °F 29.9 in Calm     96% 0 in 0 W/m2
00:17 55.9 °F 54.9 °F 29.9 in ESE 0.9 mph 1 mph 96% 0 in 0 W/m2
00:22 55.9 °F 54.9 °F 29.9 in Calm     96% 0 in 0 W/m2
00:27 55.8 °F 54.7 °F 29.9 in Calm     96% 0 in 0 W/m2
00:32 55.8 °F 54.7 °F 29.9 in Calm     96% 0 in 0 W/m2
00:37 55.6 °F 54.5 °F 29.9 in Calm     96% 0 in 0 W/m2
00:46 55.6 °F 54.5 °F 29.9 in Calm     96% 0 in 0 W/m2
00:51 55.4 °F 54.3 °F 29.9 in ESE 2 mph 2 mph 96% 0 in 0 W/m2
00:56 55.2 °F 54.1 °F 29.9 in Calm     96% 0 in 0 W/m2
01:06 55.2 °F 54.1 °F 29.9 in Calm     96% 0 in 0 W/m2
01:11 55.2 °F 54.1 °F 29.9 in Calm     96% 0 in 0 W/m2
01:16 55 °F 54 °F 29.9 in Calm     96% 0 in 0 W/m2
01:21 55 °F 54 °F 29.9 in Calm     96% 0 in 0 W/m2
01:26 55 °F 54 °F 29.9 in Calm     96% 0 in 0 W/m2
01:36 54.9 °F 53.8 °F 29.9 in Calm     96% 0 in 0 W/m2
01:41 54.7 °F 53.6 °F 29.9 in Calm   1 mph 96% 0 in 0 W/m2
01:46 54.5 °F 53.4 °F 29.9 in Calm   1 mph 96% 0 in 0 W/m2
01:51 54.3 °F 53.2 °F 29.9 in Calm     96% 0 in 0 W/m2
01:56 54.3 °F 53.2 °F 29.9 in Calm   1 mph 96% 0 in 0 W/m2
02:02 54.1 °F 53.1 °F 29.9 in Calm     96% 0 in 0 W/m2
02:07 54.1 °F 53.1 °F 29.9 in Calm     96% 0 in 0 W/m2
02:12 54 °F 52.9 °F 29.9 in Calm     96% 0 in 0 W/m2
02:17 53.8 °F 52.7 °F 29.9 in Calm     96% 0 in 0 W/m2
02:21 53.4 °F 52.3 °F 29.9 in Calm     96% 0 in 0 W/m2
02:26 53.2 °F 52.2 °F 29.9 in Calm     96% 0 in 0 W/m2
02:32 53.2 °F 52.2 °F 29.9 in Calm     96% 0 in 0 W/m2
02:37 53.1 °F 52 °F 29.9 in Calm     96% 0 in 0 W/m2
02:42 53.1 °F 52 °F 29.9 in Calm     96% 0 in 0 W/m2
02:47 53.1 °F 52 °F 29.9 in Calm     96% 0 in 0 W/m2
02:52 53.1 °F 52.2 °F 29.9 in Calm     97% 0 in 0 W/m2
02:57 52.9 °F 51.8 °F 29.9 in Calm     96% 0 in 0 W/m2
03:02 52.9 °F 51.8 °F 29.9 in Calm     96% 0 in 0 W/m2
03:07 52.5 °F 51.4 °F 29.9 in Calm     96% 0 in 0 W/m2
03:12 52.5 °F 51.4 °F 29.9 in Calm     96% 0 in 0 W/m2
03:17 52.3 °F 51.4 °F 29.9 in Calm     97% 0 in 0 W/m2
03:23 52.3 °F 51.4 °F 29.9 in Calm     97% 0 in 0 W/m2
03:28 52.3 °F 51.4 °F 29.9 in Calm     97% 0 in 0 W/m2
03:33 52.3 °F 51.3 °F 29.9 in Calm     96% 0 in 0 W/m2
03:38 52.3 °F 51.4 °F 29.9 in Calm     97% 0 in 0 W/m2
03:43 52.3 °F 51.4 °F 29.9 in Calm     97% 0 in 0 W/m2
03:48 52.3 °F 51.4 °F 29.9 in Calm     97% 0 in 0 W/m2
03:53 52.5 °F 51.6 °F 29.9 in Calm     97% 0 in 0 W/m2
03:58 52.7 °F 51.8 °F 29.9 in Calm   1 mph 97% 0 in 0 W/m2
04:03 52.9 °F 52 °F 29.9 in Calm     97% 0 in 0 W/m2
04:08 53.1 °F 52.2 °F 29.9 in Calm     97% 0 in 0 W/m2
04:13 53.1 °F 52.2 °F 29.9 in Calm     97% 0 in 0 W/m2
04:18 53.1 °F 52.2 °F 29.9 in Calm     97% 0 in 0 W/m2
04:23 53.1 °F 52.2 °F 29.9 in Calm     97% 0 in 0 W/m2
04:28 53.1 °F 52.2 °F 29.9 in Calm     97% 0 in 0 W/m2
04:33 53.1 °F 52.2 °F 29.9 in Calm     97% 0 in 0 W/m2
04:38 53.1 °F 52.2 °F 29.9 in Calm   1 mph 97% 0 in 0 W/m2
04:43 53.1 °F 52.2 °F 29.9 in Calm   2 mph 97% 0 in 0 W/m2
04:48 53.1 °F 52.2 °F 29.9 in Calm   1 mph 97% 0 in 0 W/m2
04:53 52.9 °F 52 °F 29.9 in Calm     97% 0 in 0 W/m2
04:58 52.9 °F 52 °F 29.9 in Calm     97% 0 in 0 W/m2
05:03 52.9 °F 52 °F 29.9 in SW 2 mph 3 mph 97% 0 in 0 W/m2
05:08 52.9 °F 52 °F 29.9 in Calm   1 mph 97% 0 in 0 W/m2
05:13 52.9 °F 52 °F 29.9 in Calm   1 mph 97% 0 in 0 W/m2
05:18 52.7 °F 51.8 °F 29.9 in SW 0.9 mph 2 mph 97% 0 in 0 W/m2
05:23 52.5 °F 51.6 °F 29.9 in SW 0.9 mph 2 mph 97% 0 in 0 W/m2
05:28 52.3 °F 51.4 °F 29.9 in West 2 mph 2 mph 97% 0 in 0 W/m2
05:33 52.3 °F 51.4 °F 29.9 in West 2 mph 3 mph 97% 0 in 0 W/m2
05:38 52.3 °F 51.4 °F 29.9 in West 0.9 mph 2 mph 97% 0 in 0 W/m2
05:43 52.3 °F 51.4 °F 29.9 in Calm   3 mph 97% 0 in 5 W/m2
05:49 52.3 °F 51.4 °F 29.9 in Calm     97% 0 in 5 W/m2
05:54 52.3 °F 51.4 °F 29.9 in Calm     97% 0 in 7 W/m2
05:59 52.3 °F 51.4 °F 29.9 in West 0.9 mph 2 mph 97% 0 in 9 W/m2
06:04 52.3 °F 51.4 °F 29.9 in Calm   1 mph 97% 0 in 9 W/m2
06:09 52.3 °F 51.4 °F 29.9 in Calm     97% 0 in 11 W/m2
06:12 52.3 °F 51.4 °F 29.9 in Calm     97% 0 in 11 W/m2
06:18 52.3 °F 51.4 °F 29.9 in Calm     97% 0 in 12 W/m2
06:23 52.5 °F 51.6 °F 29.9 in Calm     97% 0 in 14 W/m2
06:28 52.5 °F 51.6 °F 29.9 in Calm     97% 0 in 19 W/m2
06:33 52.5 °F 51.6 °F 29.9 in Calm     97% 0 in 47 W/m2
06:38 52.5 °F 51.6 °F 29.9 in Calm     97% 0 in 44 W/m2
06:43 52.5 °F 51.6 °F 29.9 in Calm     97% 0 in 54 W/m2
06:48 52.7 °F 51.8 °F 29.9 in Calm     97% 0 in 67 W/m2
06:53 52.7 °F 51.8 °F 29.9 in Calm     97% 0 in 69 W/m2
06:58 52.7 °F 51.8 °F 29.9 in Calm     97% 0 in 74 W/m2
07:03 52.9 °F 52 °F 29.9 in Calm     97% 0 in 116 W/m2
07:08 53.1 °F 52.2 °F 29.9 in Calm     97% 0 in 81 W/m2
07:18 53.1 °F 52.2 °F 29.9 in Calm     97% 0 in 120 W/m2
07:23 53.2 °F 52.3 °F 29.9 in Calm   1 mph 97% 0 in 139 W/m2
07:28 53.4 °F 52.9 °F 29.9 in Calm     98% 0 in 114 W/m2
07:38 54 °F 53.1 °F 29.9 in West 0.9 mph 2 mph 97% 0 in 144 W/m2
07:43 54.3 °F 53.8 °F 29.9 in NE 0.9 mph 2 mph 98% 0 in 137 W/m2
07:48 54.9 °F 54.3 °F 29.9 in Calm   1 mph 98% 0 in 132 W/m2
07:53 55 °F 54.5 °F 29.9 in NE 0.9 mph 3 mph 98% 0 in 360 W/m2
07:58 55.8 °F 55.2 °F 29.9 in North 0.9 mph 2 mph 98% 0 in 396 W/m2
08:04 55.9 °F 55.4 °F 29.9 in ENE 2 mph 3 mph 98% 0 in 160 W/m2
08:09 56.1 °F 55.6 °F 29.9 in East 0.9 mph 1 mph 98% 0 in 144 W/m2
08:14 56.1 °F 55.6 °F 29.9 in Calm   3 mph 98% 0 in 156 W/m2
08:19 56.3 °F 55.8 °F 29.9 in NE 2 mph 3 mph 98% 0 in 149 W/m2
08:24 56.5 °F 55.9 °F 29.9 in SE 0.9 mph 1 mph 98% 0 in 163 W/m2
08:29 56.5 °F 55.9 °F 29.9 in South 0.9 mph 1 mph 98% 0 in 179 W/m2
08:39 57 °F 56.5 °F 29.9 in Calm   1 mph 98% 0 in 250 W/m2
08:44 57 °F 56.5 °F 29.9 in NW 0.9 mph 3 mph 98% 0 in 276 W/m2
08:49 57.4 °F 56.5 °F 29.9 in NW 0.9 mph 2 mph 97% 0 in 276 W/m2
08:59 58.8 °F 57.9 °F 29.9 in Calm   1 mph 97% 0 in 445 W/m2
09:04 59.4 °F 58.5 °F 29.9 in NW 0.9 mph 2 mph 97% 0 in 322 W/m2
09:09 59.4 °F 57.9 °F 29.9 in NE 0.9 mph 5 mph 95% 0 in 513 W/m2
09:14 59.5 °F 57.7 °F 29.9 in NW 0.9 mph 2 mph 94% 0 in 520 W/m2
09:19 60.3 °F 58.3 °F 29.9 in West 2 mph 6 mph 93% 0 in 548 W/m2
09:25 60.6 °F 58.3 °F 29.9 in NE 2 mph 2 mph 92% 0 in 570 W/m2
09:30 61.3 °F 58.6 °F 29.9 in NW 0.9 mph 6 mph 91% 0 in 571 W/m2
09:35 61.5 °F 58.6 °F 29.9 in NW 2.9 mph 6 mph 90% 0 in 582 W/m2
09:40 61.9 °F 58.6 °F 29.9 in SW 0.9 mph 7 mph 89% 0 in 570 W/m2
09:45 61.9 °F 58.3 °F 29.9 in Calm   2 mph 88% 0 in 566 W/m2
09:50 62.1 °F 58.1 °F 29.9 in WNW 6.9 mph 9 mph 87% 0 in 577 W/m2
09:55 62.4 °F 59.2 °F 29.9 in WSW 0.9 mph 2 mph 89% 0 in 589 W/m2
10:00 63 °F 59 °F 29.9 in West 6.9 mph 9 mph 87% 0 in 613 W/m2
10:05 63 °F 58.5 °F 29.9 in NW 2.9 mph 4 mph 85% 0 in 687 W/m2
10:14 63.3 °F 58.8 °F 29.9 in West 4.5 mph 6 mph 85.5% 0 in 155 W/m2
10:19 63.3 °F 58.8 °F 29.9 in NNW 2.9 mph 6 mph 85% 0 in 712 W/m2
10:24 63.3 °F 58.8 °F 29.9 in WNW 2 mph 4 mph 85% 0 in 724 W/m2
10:30 63.7 °F 58.5 °F 29.9 in West 0.9 mph 6 mph 83% 0 in 696 W/m2
10:35 63.7 °F 58.1 °F 29.9 in West 4 mph 4 mph 82% 0 in 737 W/m2
10:40 64 °F 58.8 °F 29.9 in NNW 2.9 mph 3 mph 83% 0 in 747 W/m2
10:45 64.8 °F 58.5 °F 29.9 in NE 0.9 mph 8 mph 80% 0 in 800 W/m2
10:50 65.3 °F 59 °F 29.9 in NW 0.9 mph 3 mph 80% 0 in 853 W/m2
10:55 65.7 °F 58.3 °F 29.9 in WSW 2.9 mph 14 mph 77% 0 in 932 W/m2
11:00 65.5 °F 57.7 °F 29.9 in NW 2.9 mph 5 mph 76% 0 in 461 W/m2
11:10 64.9 °F 57.9 °F 29.9 in WSW 6.9 mph 7 mph 78% 0 in 109 W/m2
11:15 64.4 °F 57.4 °F 29.9 in West 2 mph 4 mph 78% 0 in 120 W/m2
11:20 63.9 °F 57.6 °F 29.9 in NW 7 mph 7 mph 80% 0 in 120 W/m2
11:30 63.7 °F 57.4 °F 29.9 in Calm   3 mph 80% 0 in 264 W/m2
11:35 63.7 °F 57.4 °F 29.9 in ENE 0.9 mph 2 mph 80% 0 in 230 W/m2
11:40 63.7 °F 58.1 °F 29.9 in Calm   2 mph 82% 0 in 274 W/m2
11:45 63.9 °F 57.9 °F 29.9 in West 7 mph 7 mph 81% 0 in 244 W/m2
11:50 64.6 °F 58.6 °F 29.9 in North 2 mph 3 mph 81% 0 in 954 W/m2
11:55 65.7 °F 59 °F 29.9 in Calm   7 mph 79% 0 in 1053 W/m2
12:00 66.6 °F 57.6 °F 29.9 in WNW 0.9 mph 5 mph 73% 0 in 243 W/m2
12:05 66.4 °F 57.9 °F 29.9 in WNW 0.9 mph 2 mph 74% 0 in 227 W/m2
12:10 65.7 °F 56.3 °F 29.9 in NW 2.9 mph 4 mph 72% 0 in 234 W/m2
12:16 65.1 °F 56.7 °F 29.9 in SSW 0.9 mph 9 mph 74% 0 in 234 W/m2
12:21 64.9 °F 56.8 °F 29.9 in WSW 2 mph 4 mph 75% 0 in 272 W/m2
12:26 64.9 °F 57.9 °F 29.9 in Calm   1 mph 78% 0 in 318 W/m2
12:31 65.5 °F 57.7 °F 29.9 in NE 0.9 mph 3 mph 76% 0 in 1102 W/m2
12:36 65.7 °F 55.9 °F 29.9 in WSW 4.9 mph 8 mph 71% 0 in 367 W/m2
12:41 66 °F 57.2 °F 29.9 in WNW 4.9 mph 7 mph 73% 0 in 879 W/m2
12:46 66.7 °F 57.4 °F 29.9 in North 4 mph 8 mph 72% 0 in 983 W/m2
12:51 66.9 °F 56.8 °F 29.9 in West 6 mph 12 mph 70% 0 in 329 W/m2
12:56 66.4 °F 55.9 °F 29.9 in WNW 0.9 mph 11 mph 69% 0 in 374 W/m2
13:01 65.7 °F 55.9 °F 29.9 in West 0.9 mph 6 mph 71% 0 in 246 W/m2
13:06 65.7 °F 56.8 °F 29.9 in WSW 2 mph 11 mph 73% 0 in 216 W/m2
13:11 65.7 °F 56.8 °F 29.9 in NW 4 mph 4 mph 73% 0 in 302 W/m2
13:21 65.8 °F 57.4 °F 29.9 in NNW 0.9 mph 2 mph 74% 0 in 325 W/m2
13:26 65.8 °F 57.4 °F 29.9 in West 4 mph 5 mph 74% 0 in 271 W/m2
13:31 66.2 °F 56.8 °F 29.9 in WNW 4 mph 4 mph 72% 0 in 262 W/m2
13:36 66.4 °F 56.3 °F 29.9 in NW 2.9 mph 4 mph 70% 0 in 301 W/m2
13:41 66.6 °F 56.8 °F 29.9 in ENE 2 mph 6 mph 71% 0 in 411 W/m2
13:47 66.7 °F 56.3 °F 29.9 in WNW 2 mph 2 mph 69% 0 in 302 W/m2
13:52 66.7 °F 55.8 °F 29.9 in Calm   2 mph 68% 0 in 253 W/m2
13:57 66.7 °F 55.8 °F 29.9 in NE 2 mph 4 mph 68% 0 in 311 W/m2
14:02 66.7 °F 56.3 °F 29.9 in NNE 0.9 mph 4 mph 69% 0 in 454 W/m2
14:07 67.3 °F 56.8 °F 29.9 in ENE 2 mph 4 mph 69% 0 in 1065 W/m2
14:12 67.6 °F 57 °F 29.9 in West 2 mph 4 mph 69% 0 in 185 W/m2
14:17 67.6 °F 57 °F 29.9 in East 2 mph 2 mph 69% 0 in 216 W/m2
14:22 67.8 °F 58.8 °F 29.9 in NNE 0.9 mph 2 mph 73% 0 in 230 W/m2
14:27 67.8 °F 57.2 °F 29.9 in Calm   1 mph 69% 0 in 234 W/m2
14:32 68 °F 57.4 °F 29.9 in WNW 0.9 mph 3 mph 69% 0 in 373 W/m2
14:37 68 °F 57.4 °F 29.9 in NW 2 mph 2 mph 69% 0 in 473 W/m2
14:42 68.4 °F 57.7 °F 29.9 in WSW 6 mph 6 mph 69% 0 in 522 W/m2
14:47 68.7 °F 56.5 °F 29.9 in Calm   3 mph 65% 0 in 673 W/m2
14:52 68.7 °F 56.5 °F 29.9 in ENE 2.9 mph 4 mph 65% 0 in 568 W/m2
14:57 68.7 °F 57.4 °F 29.9 in West 2 mph 3 mph 67% 0 in 557 W/m2
15:02 68.7 °F 57.4 °F 29.9 in West 4 mph 10 mph 67% 0 in 622 W/m2
15:07 68.4 °F 56.1 °F 29.9 in WNW 2.9 mph 6 mph 65% 0 in 561 W/m2
15:12 68.4 °F 56.5 °F 29.9 in West 2 mph 9 mph 66% 0 in 909 W/m2
15:17 67.8 °F 56.5 °F 29.9 in NW 2.9 mph 3 mph 67% 0 in 294 W/m2
15:22 67.8 °F 57.2 °F 29.9 in WNW 0.9 mph 8 mph 69% 0 in 531 W/m2
15:27 68.2 °F 56.8 °F 29.9 in NNW 2 mph 3 mph 67% 0 in 478 W/m2
15:32 68.4 °F 57.4 °F 29.9 in WSW 2.9 mph 7 mph 68% 0 in 294 W/m2
15:37 68.5 °F 57.6 °F 29.9 in Calm   4 mph 68% 0 in 248 W/m2
15:42 68.4 °F 56.5 °F 29.9 in NW 2 mph 4 mph 66% 0 in 265 W/m2
15:47 68.2 °F 56.8 °F 29.9 in WSW 2 mph 4 mph 67% 0 in 269 W/m2
15:52 67.6 °F 56.7 °F 29.9 in WSW 2.9 mph 4 mph 68% 0 in 248 W/m2
15:57 67.6 °F 57 °F 29.9 in West 0.9 mph 4 mph 69% 0 in 225 W/m2
16:02 67.5 °F 57 °F 29.9 in NW 2.9 mph 4 mph 69% 0 in 272 W/m2
16:07 67.6 °F 57 °F 29.9 in Calm   1 mph 69% 0 in 381 W/m2
16:12 68.4 °F 57.4 °F 29.9 in NW 0.9 mph 8 mph 68% 0 in 427 W/m2
16:17 69.4 °F 57.6 °F 29.9 in SSW 2.9 mph 4 mph 66% 0 in 998 W/m2
16:22 70.2 °F 56.5 °F 29.9 in SW 4.9 mph 10 mph 62% 0 in 786 W/m2
16:27 70.3 °F 55.8 °F 29.9 in WNW 4 mph 9 mph 60% 0 in 754 W/m2
16:32 70.2 °F 55.2 °F 29.9 in NW 2.9 mph 8 mph 59% 0 in 737 W/m2
16:37 70.7 °F 56.7 °F 29.9 in West 0.9 mph 4 mph 61% 0 in 722 W/m2
16:42 70.9 °F 56.3 °F 29.9 in WNW 4.9 mph 6 mph 60% 0 in 721 W/m2
16:47 71.1 °F 56.5 °F 29.9 in Calm   3 mph 60% 0 in 701 W/m2
16:52 71.2 °F 57 °F 29.9 in WSW 6.9 mph 8 mph 61% 0 in 701 W/m2
16:57 71.2 °F 55.8 °F 29.9 in NW 4 mph 7 mph 58% 0 in 689 W/m2
17:03 71.1 °F 55.9 °F 29.9 in WNW 2.9 mph 8 mph 59% 0 in 694 W/m2
17:08 71.2 °F 55.8 °F 29.9 in NW 4.9 mph 5 mph 58% 0 in 670 W/m2
17:13 71.4 °F 55.9 °F 29.9 in WSW 2 mph 8 mph 58% 0 in 673 W/m2
17:18 71.4 °F 56.8 °F 29.9 in WSW 8.1 mph 8 mph 60% 0 in 650 W/m2
17:23 71.4 °F 55.9 °F 29.9 in NW 0.9 mph 4 mph 58% 0 in 638 W/m2
17:28 71.8 °F 56.7 °F 29.9 in West 0.9 mph 8 mph 59% 0 in 629 W/m2
17:33 72.1 °F 56.1 °F 29.9 in WNW 2.9 mph 3 mph 57% 0 in 628 W/m2
17:38 72.7 °F 55.6 °F 29.9 in SW 2.9 mph 5 mph 55% 0 in 622 W/m2
17:43 72.7 °F 55 °F 29.9 in WSW 0.9 mph 4 mph 54% 0 in 636 W/m2
17:48 72.9 °F 56.7 °F 29.9 in WSW 6.9 mph 7 mph 57% 0 in 624 W/m2
17:53 73 °F 55.4 °F 29.9 in West 2.9 mph 6 mph 54% 0 in 617 W/m2
17:58 72.7 °F 55 °F 29.9 in West 2.9 mph 7 mph 54% 0 in 624 W/m2
18:03 72.3 °F 54.7 °F 29.9 in West 0.9 mph 4 mph 54% 0 in 592 W/m2
18:08 72.7 °F 54.5 °F 29.9 in NW 4 mph 9 mph 53% 0 in 541 W/m2
18:13 72.7 °F 54.5 °F 29.9 in WSW 6.9 mph 9 mph 53% 0 in 538 W/m2
18:18 72.9 °F 55.2 °F 29.9 in East 2 mph 2 mph 54% 0 in 526 W/m2
18:23 73 °F 53.8 °F 29.9 in West 2 mph 6 mph 51% 0 in 503 W/m2
18:28 73.2 °F 54 °F 29.9 in West 2 mph 6 mph 51% 0 in 425 W/m2
18:34 72.7 °F 54 °F 29.9 in West 2 mph 3 mph 52% 0 in 387 W/m2
18:39 72.3 °F 53.8 °F 29.9 in WSW 4.9 mph 8 mph 52% 0 in 388 W/m2
18:44 72.1 °F 53.6 °F 29.9 in WSW 0.9 mph 4 mph 52% 0 in 91 W/m2
18:49 71.8 °F 54.7 °F 29.9 in West 2 mph 4 mph 55% 0 in 116 W/m2
18:54 71.4 °F 55.4 °F 29.9 in West 0.9 mph 1 mph 57% 0 in 105 W/m2
18:59 71.2 °F 54.7 °F 29.9 in Calm   2 mph 56% 0 in 163 W/m2
19:04 71.4 °F 54 °F 29.9 in NW 2 mph 4 mph 54% 0 in 346 W/m2
19:09 71.8 °F 54.7 °F 29.9 in East 2 mph 6 mph 55% 0 in 345 W/m2
19:14 72.1 °F 55 °F 29.9 in NNE 2 mph 2 mph 55% 0 in 381 W/m2
19:19 72.7 °F 57 °F 29.9 in ESE 0.9 mph 4 mph 58% 0 in 339 W/m2
19:24 72.9 °F 55.8 °F 29.9 in Calm   1 mph 55% 0 in 200 W/m2
19:29 73 °F 54.3 °F 29.9 in WSW 0.9 mph 5 mph 52% 0 in 302 W/m2
19:34 72.9 °F 54.7 °F 29.9 in WNW 2.9 mph 4 mph 53% 0 in 272 W/m2
19:39 72.9 °F 55.8 °F 29.9 in NW 2.9 mph 5 mph 55% 0 in 243 W/m2
19:44 72.9 °F 56.3 °F 29.9 in WNW 2.9 mph 4 mph 56% 0 in 199 W/m2
19:49 72.7 °F 55.6 °F 29.9 in WSW 0.9 mph 6 mph 55% 0 in 193 W/m2
19:54 72.3 °F 55.2 °F 29.9 in WSW 2 mph 3 mph 55% 0 in 197 W/m2
19:59 72 °F 55.9 °F 29.9 in NW 2.9 mph 6 mph 57% 0 in 67 W/m2
20:04 71.2 °F 54.3 °F 29.9 in WSW 2 mph 3 mph 55% 0 in 58 W/m2
20:09 70.5 °F 55.6 °F 29.9 in Calm   6 mph 59% 0 in 67 W/m2
20:14 70.2 °F 56.1 °F 29.9 in West 2 mph 2 mph 61% 0 in 83 W/m2
20:19 69.8 °F 57 °F 29.9 in Calm   1 mph 64% 0 in 181 W/m2
20:24 70 °F 55.9 °F 29.9 in West 2 mph 3 mph 61% 0 in 169 W/m2
20:29 70.2 °F 55.6 °F 29.9 in Calm   4 mph 60% 0 in 155 W/m2
20:34 70.3 °F 55.8 °F 29.9 in WSW 2 mph 4 mph 60% 0 in 109 W/m2
20:39 70.2 °F 55.6 °F 29.9 in West 2.9 mph 5 mph 60% 0 in 90 W/m2
20:44 70 °F 55.9 °F 29.9 in West 4 mph 4 mph 61% 0 in 79 W/m2
20:49 69.6 °F 55.9 °F 29.9 in West 2.9 mph 3 mph 62% 0 in 69 W/m2
20:54 69.3 °F 56.1 °F 29.9 in Calm   2 mph 63% 0 in 60 W/m2
20:59 69.1 °F 56.5 °F 29.9 in WNW 0.9 mph 3 mph 64% 0 in 51 W/m2
21:04 68.7 °F 56.5 °F 29.9 in West 2.9 mph 3 mph 65% 0 in 42 W/m2
21:09 68.2 °F 55.6 °F 29.9 in West 0.9 mph 6 mph 64% 0 in 33 W/m2
21:14 67.5 °F 55.8 °F 29.9 in WSW 2 mph 3 mph 66% 0 in 18 W/m2
21:19 66.7 °F 55.8 °F 29.9 in WSW 0.9 mph 5 mph 68% 0 in 16 W/m2
21:24 66.2 °F 55.8 °F 29.9 in WNW 2 mph 3 mph 69% 0 in 12 W/m2
21:29 65.8 °F 55.4 °F 29.9 in West 2 mph 6 mph 69% 0 in 9 W/m2
21:34 65.3 °F 55.2 °F 29.9 in Calm   2 mph 70% 0 in 7 W/m2
21:39 64.9 °F 55.4 °F 29.9 in Calm   5 mph 71% 0 in 5 W/m2
21:44 64.6 °F 55.4 °F 29.9 in Calm   2 mph 72% 0 in 0 W/m2
21:49 64.2 °F 55.4 °F 29.9 in West 0.9 mph 3 mph 73% 0 in 0 W/m2
21:54 63.9 °F 55.8 °F 29.9 in West 0.9 mph 1 mph 75% 0 in 0 W/m2
21:59 63.5 °F 56.1 °F 29.9 in West 0.9 mph 3 mph 77% 0 in 0 W/m2
22:04 63 °F 55.6 °F 29.9 in West 0.9 mph 1 mph 77% 0 in 0 W/m2
22:09 62.4 °F 55.4 °F 29.9 in Calm   1 mph 78% 0 in 0 W/m2
22:14 61.9 °F 54.9 °F 29.9 in Calm   2 mph 78% 0 in 0 W/m2
22:19 61.5 °F 54.7 °F 29.9 in Calm   1 mph 78% 0 in 0 W/m2
22:24 61.3 °F 55 °F 29.9 in WSW 0.9 mph 1 mph 80% 0 in 0 W/m2
22:29 61.2 °F 54.9 °F 29.9 in Calm   1 mph 80% 0 in 0 W/m2
22:34 60.6 °F 54.7 °F 29.9 in Calm     81% 0 in 0 W/m2
22:39 60.4 °F 54.3 °F 29.9 in Calm     80% 0 in 0 W/m2
22:44 60.4 °F 54.5 °F 29.9 in Calm     81% 0 in 0 W/m2
22:49 60.3 °F 54.7 °F 29.9 in Calm     82% 0 in 0 W/m2
22:54 60.1 °F 54.5 °F 29.9 in Calm     82% 0 in 0 W/m2
22:59 59.7 °F 54.5 °F 29.9 in Calm     83% 0 in 0 W/m2
23:04 59.5 °F 54.3 °F 29.9 in Calm     83% 0 in 0 W/m2
23:09 59.2 °F 54.3 °F 29.9 in Calm     84% 0 in 0 W/m2
23:15 59 °F 54.1 °F 29.9 in WSW 0.9 mph 2 mph 84% 0 in 0 W/m2
23:20 58.8 °F 54 °F 29.9 in Calm     84% 0 in 0 W/m2
23:25 58.6 °F 54.1 °F 29.9 in WSW 0.9 mph 2 mph 85% 0 in 0 W/m2
23:30 58.6 °F 54.1 °F 29.9 in Calm   1 mph 85% 0 in 0 W/m2
23:35 58.6 °F 54.1 °F 29.9 in WSW 0.9 mph 1 mph 85% 0 in 0 W/m2
23:40 58.6 °F 54.1 °F 29.9 in Calm     85% 0 in 0 W/m2
23:45 58.6 °F 53.8 °F 29.9 in WSW 2 mph 2 mph 84% 0 in 0 W/m2
23:50 59.4 °F 54.1 °F 29.9 in Calm   2 mph 83% 0 in 0 W/m2
23:55 59.7 °F 54.1 °F 29.9 in WSW 0.9 mph 2 mph 82% 0 in 0 W/m2
Juneau County Weather
Compliments of Weather Underground - 4 mb